Santa Fe, NM

8:59 PM MDT on October 17, 2018 (GMT -0600)
Guadalupe District | | Change Station

Elev 6942 ft 35.69 °N, 105.95 °W | Updated 1 second ago

Mostly Cloudy
Mostly Cloudy
50 °F
Feels Like 46 °F
N
8.9
Wind Variable Wind from ESE
Gusts 9.8 mph

Today
High -- | Low -- °F
--% Chance of Precip.
Yesterday
High -- | Low -- °F
Precip. -- in
Pressure 30.34 in
Visibility 10.0 miles
Clouds Overcast 3500 ft
Windchill 46 °F
Dew Point 37 °F
Humidity 61%
Rainfall 0.00 in
Snow Depth Not available.
7:12 AM 6:25 PM
Waxing Gibbous, 63% visible
METAR KSAF 180253Z AUTO 18011KT 10SM OVC035 06/02 A3042 RMK AO2 SLP272 T00610017 51013
Pressure 30.34 in
Visibility 10.0 miles
Clouds Overcast 3500 ft
Windchill 46 °F
Dew Point 37 °F
Humidity 61%
Rainfall 0.00 in
Snow Depth Not available.
7:12 AM 6:25 PM
Waxing Gibbous, 63% visible
METAR KSAF 180253Z AUTO 18011KT 10SM OVC035 06/02 A3042 RMK AO2 SLP272 T00610017 51013

Get Severe Weather Alerts

Thanks for signing up!

Be on the lookout for a verification email in your inbox.

You'll start receiving the daily forecast at 6 AM.

×

10-Day Weather Forecast

Almanac

Astronomy

Oct. 17, 2018 Rise Set
Actual Time
Civil Twilight
Nautical Twilight
Astronomical Twilight
Moon
Length of Visible Light
Length of Day
Tomorrow will be .
, % of the Moon is Illuminated

Today's Extremes

State Highs State Lows

Community

WunderPhotos

Category 6

Welcome to Category 6. This is the collective home for Weather Underground's featured writeups by Dr. Jeff Masters (right), Bob Henson (left), Chris Burt, and other regular contributors.

Nearby

Air Quality

  Air Quality AQ Index Pollutant
Not available.

Snow Depth

Station Depth Elevation

Earthquake Activity

City Distance Mag. Time & Date
Minimum magnitude displayed is 2.5.

Coastal Water Temperatures

Place Temperature

Stations

Nearby Weather Stations

Station Location Temp. Windchill Dew Point Humidity Wind Precip. Elev Updated Type
                   

Watches & Warnings

There are currently no watches in effect.